RJTQ(METAR)
08/22 17:00
RJTQ 220800Z 22011KT 9999 FEW012 SCT020 BKN045 29/28 Q1012 RMK
A2991=
戻る
トップページへ戻る
IMOC Co,.Ltd.